Time;durP1;ratioP1;P1;durP2;ratioP2;P2;SDS_P1;SDS_P2;PMS_P1;PMS_P2;Temp;Humidity;BMP_temperature;BMP_pressure;BME280_temperature;BME280_humidity;BME280_pressure;Samples;Min_cycle;Max_cycle;Signal;HPM_P1;HPM_P2
2023/03/22 00:00:52;;;;;;;6.70;4.00;;;;;;;-0.49;59.02;63652.97;5096057;28;20048;-77
2023/03/22 00:03:19;;;;;;;6.70;3.85;;;;;;;-0.52;59.01;63650.19;5078088;28;20089;-76
2023/03/22 00:05:45;;;;;;;7.68;4.07;;;;;;;-0.55;59.66;63646.84;5094812;28;20032;-76
2023/03/22 00:08:12;;;;;;;11.18;4.53;;;;;;;-0.46;59.27;63656.31;5094642;28;20040;-76
2023/03/22 00:10:39;;;;;;;9.27;4.80;;;;;;;-0.40;59.06;63663.00;5111701;28;20071;-75
2023/03/22 00:13:07;;;;;;;10.05;4.40;;;;;;;-0.40;59.15;63663.00;5111626;28;20499;-75
2023/03/22 00:15:33;;;;;;;9.82;4.32;;;;;;;-0.47;59.54;63655.19;5077377;28;20036;-76
2023/03/22 00:18:00;;;;;;;8.90;4.90;;;;;;;-0.39;59.42;63664.09;5094479;28;20122;-75
2023/03/22 00:20:32;;;;;;;8.23;3.80;;;;;;;-0.39;59.45;63664.09;5094616;28;20044;-76
2023/03/22 00:22:58;;;;;;;10.18;3.90;;;;;;;-0.39;59.24;63679.16;5078114;28;20492;-76
2023/03/22 00:25:24;;;;;;;14.13;4.63;;;;;;;-0.37;59.26;63681.94;5095729;28;20134;-75
2023/03/22 00:27:51;;;;;;;9.27;4.68;;;;;;;-0.37;59.15;63681.41;5077314;28;20139;-75
2023/03/22 00:30:17;;;;;;;10.07;4.47;;;;;;;-0.47;59.78;63654.63;5095699;28;20093;-76
2023/03/22 00:32:43;;;;;;;7.70;3.80;;;;;;;-0.52;59.81;63665.25;5094778;28;20050;-75
2023/03/22 00:35:10;;;;;;;10.18;4.25;;;;;;;-0.47;59.67;63654.63;5094436;28;20040;-77
2023/03/22 00:37:40;;;;;;;10.00;5.03;;;;;;;-0.43;59.79;63674.72;5111477;28;20043;-75
2023/03/22 00:40:11;;;;;;;11.70;4.82;;;;;;;-0.43;59.50;63659.66;5077425;28;20075;-76
2023/03/22 00:42:39;;;;;;;14.02;4.30;;;;;;;-0.59;59.91;63657.47;5078022;28;20040;-76
2023/03/22 00:45:07;;;;;;;9.30;4.50;;;;;;;-0.51;60.06;63651.28;5094127;28;20040;-75
2023/03/22 00:47:33;;;;;;;9.90;4.05;;;;;;;-0.60;60.17;63656.31;5110485;28;20097;-76
2023/03/22 00:49:59;;;;;;;8.10;4.70;;;;;;;-0.64;60.22;63636.84;5077130;28;20048;-76
2023/03/22 00:52:26;;;;;;;7.93;4.40;;;;;;;-0.59;60.36;63641.84;5095336;28;20050;-77
2023/03/22 00:54:51;;;;;;;7.57;4.15;;;;;;;-0.61;60.13;63639.59;5093978;28;20059;-76
2023/03/22 00:57:18;;;;;;;8.05;4.25;;;;;;;-0.53;60.18;63648.50;5094233;28;20092;-76
2023/03/22 00:59:44;;;;;;;14.70;4.72;;;;;;;-0.63;60.40;63637.94;5094131;28;20134;-76
2023/03/22 01:02:14;;;;;;;9.55;4.15;;;;;;;-0.73;60.75;63642.44;5095143;28;20491;-77
2023/03/22 01:04:48;;;;;;;8.95;4.40;;;;;;;-0.69;60.80;63630.72;5095289;28;20047;-77
2023/03/22 01:07:16;;;;;;;12.52;4.15;;;;;;;-0.69;61.04;63631.25;5093821;28;20043;-76
2023/03/22 01:09:52;;;;;;;13.70;4.57;;;;;;;-0.67;60.79;63633.50;5077048;28;20054;-75
2023/03/22 01:12:19;;;;;;;9.15;4.55;;;;;;;-0.74;61.11;63641.88;5093401;28;20064;-77
2023/03/22 01:14:45;;;;;;;15.35;5.05;;;;;;;-0.80;61.55;63619.03;5093521;28;20495;-77
2023/03/22 01:17:11;;;;;;;12.32;4.32;;;;;;;-0.71;61.10;63644.09;5076436;28;20131;-76
2023/03/22 01:19:37;;;;;;;13.00;4.50;;;;;;;-0.69;61.67;63630.72;5093480;28;20082;-75
2023/03/22 01:22:05;;;;;;;8.15;4.20;;;;;;;-0.63;61.41;63653.56;5093399;28;20063;-76
2023/03/22 01:24:32;;;;;;;9.75;4.18;;;;;;;-0.65;61.75;63635.16;5092977;28;20044;-77
2023/03/22 01:26:58;;;;;;;9.13;4.97;;;;;;;-0.68;61.86;63631.81;5092582;28;20056;-76
2023/03/22 01:29:24;;;;;;;9.95;5.45;;;;;;;-0.73;62.20;63645.03;5094057;28;20039;-77
2023/03/22 01:31:50;;;;;;;16.58;4.70;;;;;;;-0.63;61.55;63637.94;5093219;28;20036;-76
2023/03/22 01:34:16;;;;;;;10.98;5.00;;;;;;;-0.64;61.86;63651.88;5076320;28;20047;-77
2023/03/22 01:36:42;;;;;;;8.35;4.60;;;;;;;-0.66;61.77;63649.66;5093082;28;20400;-77
2023/03/22 01:39:08;;;;;;;13.95;5.10;;;;;;;-0.62;62.02;63654.13;5093095;28;20395;-77
2023/03/22 01:41:36;;;;;;;9.57;4.95;;;;;;;-0.64;61.89;63636.84;5076526;28;20039;-77
2023/03/22 01:44:11;;;;;;;9.38;5.40;;;;;;;-0.52;61.86;63649.63;5093140;28;20060;-75
2023/03/22 01:46:41;;;;;;;5.88;4.00;;;;;;;-0.59;62.16;63641.84;5092954;28;20048;-75
2023/03/22 01:49:30;;;;;;;14.40;4.30;;;;;;;-0.61;61.74;63655.22;5075822;28;20040;-76
2023/03/22 01:52:01;;;;;;;8.05;3.80;;;;;;;-0.73;62.82;63642.97;5110269;28;20048;-76
2023/03/22 01:54:51;;;;;;;16.02;4.80;;;;;;;-0.62;61.82;63638.50;5092808;28;20131;-77
2023/03/22 01:57:40;;;;;;;9.02;4.15;;;;;;;-0.59;61.98;63657.47;5092626;28;20040;-76
2023/03/22 02:00:14;;;;;;;8.98;4.20;;;;;;;-0.59;61.85;63642.41;5076564;28;20094;-76
2023/03/22 02:02:56;;;;;;;15.77;4.88;;;;;;;-0.45;61.52;63656.84;5093204;28;20055;-77
2023/03/22 02:05:32;;;;;;;13.23;4.88;;;;;;;-0.46;61.97;63671.91;5092717;28;20051;-77
2023/03/22 02:07:59;;;;;;;11.23;4.82;;;;;;;-0.39;61.20;63664.09;5075609;28;20044;-76
2023/03/22 02:10:27;;;;;;;7.75;4.10;;;;;;;-0.35;61.29;63684.16;5092242;28;20101;-76
2023/03/22 02:13:24;;;;;;;12.68;5.07;;;;;;;-0.29;61.34;63690.84;5092560;28;20047;-76
2023/03/22 02:16:16;;;;;;;13.00;5.45;;;;;;;-0.22;61.09;63697.53;5092245;28;20046;-77
2023/03/22 02:19:00;;;;;;;13.23;5.00;;;;;;;-0.17;60.80;63687.47;5074986;28;20044;-76
2023/03/22 02:22:02;;;;;;;11.15;5.05;;;;;;;-0.19;60.88;63701.41;5109647;28;20044;-77
2023/03/22 02:24:57;;;;;;;17.52;5.15;;;;;;;-0.21;60.88;63698.66;5078698;28;20050;-76
2023/03/22 02:27:39;;;;;;;21.38;5.38;;;;;;;-0.14;61.14;63690.81;5108195;28;20564;-77
2023/03/22 02:30:21;;;;;;;16.75;5.07;;;;;;;-0.08;60.47;63697.50;5071224;28;20064;-77
2023/03/22 02:32:57;;;;;;;12.82;5.05;;;;;;;-0.05;60.64;63700.84;5084101;28;20113;-76
2023/03/22 02:35:29;;;;;;;10.93;4.63;;;;;;;-0.04;60.39;63702.50;5055000;28;20041;-76
2023/03/22 02:38:13;;;;;;;15.35;5.15;;;;;;;0.03;59.94;63709.19;5054825;28;20102;-76
2023/03/22 02:41:02;;;;;;;9.52;4.60;;;;;;;0.14;59.68;63721.97;5038143;28;20479;-77
2023/03/22 02:43:37;;;;;;;8.05;3.88;;;;;;;0.18;59.72;63725.88;5038311;28;20396;-77
2023/03/22 02:46:18;;;;;;;15.43;4.90;;;;;;;0.21;59.58;63729.78;5038303;28;20048;-76
2023/03/22 02:49:01;;;;;;;9.73;4.30;;;;;;;0.15;59.37;63723.13;5073304;28;20051;-77
2023/03/22 02:51:33;;;;;;;13.70;4.85;;;;;;;0.28;59.07;63736.47;5038430;28;20048;-76
2023/03/22 02:54:08;;;;;;;16.73;4.55;;;;;;;0.31;58.67;63755.44;5072706;28;20044;-76
2023/03/22 02:56:46;;;;;;;13.23;4.78;;;;;;;0.44;58.82;63754.28;5054778;28;20040;-75
2023/03/22 02:59:13;;;;;;;12.20;4.15;;;;;;;0.52;58.28;63763.19;5054759;28;20414;-75
2023/03/22 03:01:48;;;;;;;6.75;4.07;;;;;;;0.48;58.23;63758.75;5054578;28;20040;-76
2023/03/22 03:04:20;;;;;;;13.60;4.55;;;;;;;0.54;58.34;63781.06;5071561;28;20072;-76
2023/03/22 03:06:50;;;;;;;8.60;4.18;;;;;;;0.46;58.49;63757.06;5071429;28;20037;-77
2023/03/22 03:09:18;;;;;;;18.75;4.60;;;;;;;0.49;58.45;63759.88;5055970;28;20526;-76
2023/03/22 03:11:49;;;;;;;13.40;4.63;;;;;;;0.66;58.26;63778.25;5076669;28;20052;-77
2023/03/22 03:14:24;;;;;;;17.88;4.38;;;;;;;0.73;58.27;63802.25;5042383;28;20135;-77
2023/03/22 03:17:15;;;;;;;18.05;4.25;;;;;;;0.80;58.08;63808.94;5058839;28;20575;-78
2023/03/22 03:20:06;;;;;;;8.75;4.45;;;;;;;0.79;58.19;63792.75;5059386;28;20044;-84
2023/03/22 03:22:35;;;;;;;15.57;4.90;;;;;;;0.93;57.71;63807.78;5058571;28;20194;-76
2023/03/22 03:25:04;;;;;;;8.73;4.17;;;;;;;1.00;57.85;63815.03;5041700;28;20055;-75
2023/03/22 03:27:42;;;;;;;11.88;4.82;;;;;;;1.05;57.73;63836.78;5074870;28;20415;-77
2023/03/22 03:30:12;;;;;;;20.30;5.65;;;;;;;1.14;57.93;63831.19;5075138;28;20411;-78
2023/03/22 03:32:51;;;;;;;11.25;4.88;;;;;;;1.04;57.63;63820.03;5091588;28;20139;-77
2023/03/22 03:35:24;;;;;;;13.27;4.75;;;;;;;1.03;57.72;63818.94;5058382;28;20552;-77
2023/03/22 03:38:01;;;;;;;10.52;4.20;;;;;;;1.06;58.27;63821.72;5075659;28;20048;-77
2023/03/22 03:40:32;;;;;;;15.77;4.40;;;;;;;1.27;57.91;63860.22;5075314;28;20083;-77
2023/03/22 03:43:02;;;;;;;15.70;4.55;;;;;;;1.51;57.91;63870.78;5058784;28;20476;-78
2023/03/22 03:45:30;;;;;;;14.15;4.30;;;;;;;1.68;57.77;63890.28;5058234;28;20040;-80
2023/03/22 03:48:08;;;;;;;33.30;4.65;;;;;;;1.82;57.38;63904.78;5074481;28;20087;-77
2023/03/22 03:50:36;;;;;;;18.95;4.53;;;;;;;2.02;56.38;63927.09;5074430;28;20049;-82
2023/03/22 03:53:04;;;;;;;19.50;4.95;;;;;;;2.32;56.13;63975.16;5064049;28;20093;-80
2023/03/22 03:55:32;;;;;;;18.08;5.47;;;;;;;2.41;55.72;63969.53;5063182;28;20078;-80
2023/03/22 03:57:57;;;;;;;14.50;5.32;;;;;;;2.60;56.00;63990.72;5083217;28;20403;-78
2023/03/22 04:00:23;;;;;;;13.93;5.78;;;;;;;2.74;55.43;64005.22;5074629;28;20169;-81
2023/03/22 04:03:09;;;;;;;19.48;5.72;;;;;;;2.99;55.16;64032.59;5059979;28;20045;-86
2023/03/22 04:05:53;;;;;;;35.00;5.75;;;;;;;2.96;54.49;64029.25;5058413;28;20044;-85
2023/03/22 04:08:19;;;;;;;19.25;5.07;;;;;;;2.87;54.53;64020.31;5074358;28;20044;-84
2023/03/22 04:10:49;;;;;;;12.38;6.45;;;;;;;2.89;54.76;64021.97;5041028;28;20564;-78
2023/03/22 04:13:15;;;;;;;11.80;5.50;;;;;;;2.94;55.01;64027.03;5041593;28;20036;-78
2023/03/22 04:15:41;;;;;;;18.05;5.82;;;;;;;3.07;55.00;64041.53;5057786;28;20107;-79
2023/03/22 04:18:12;;;;;;;26.00;5.32;;;;;;;3.15;54.57;64051.03;5074483;28;20048;-80
2023/03/22 04:20:40;;;;;;;24.38;6.35;;;;;;;3.19;54.74;64054.94;5074028;28;20048;-78
2023/03/22 04:23:09;;;;;;;15.23;6.03;;;;;;;3.15;54.82;64050.47;5057639;28;20048;-79
2023/03/22 04:25:36;;;;;;;12.40;5.70;;;;;;;3.36;55.23;64073.38;5074487;28;20040;-83
2023/03/22 04:28:08;;;;;;;24.77;6.68;;;;;;;3.56;54.17;64095.16;5057746;28;20092;-79
2023/03/22 04:30:35;;;;;;;15.98;6.13;;;;;;;3.76;54.60;64117.53;5057870;28;20454;-79
2023/03/22 04:33:07;;;;;;;16.92;6.43;;;;;;;4.19;54.13;64163.94;5074369;28;20052;-81
2023/03/22 04:35:55;;;;;;;15.27;6.30;;;;;;;4.51;53.15;64199.69;5072686;28;20495;-77
2023/03/22 04:38:24;;;;;;;18.55;6.20;;;;;;;4.60;52.88;64209.78;5050379;28;20046;-82
2023/03/22 04:40:51;;;;;;;19.25;6.05;;;;;;;4.68;52.73;64218.19;5100698;28;20043;-79
2023/03/22 04:43:22;;;;;;;15.43;6.22;;;;;;;4.74;52.90;64224.91;5094263;28;20044;-78
2023/03/22 04:45:56;;;;;;;27.90;7.25;;;;;;;4.82;52.86;64233.28;5061325;28;20044;-79
2023/03/22 04:48:28;;;;;;;14.80;6.47;;;;;;;4.93;52.56;64245.59;5077354;28;20130;-79
2023/03/22 04:50:57;;;;;;;14.25;6.13;;;;;;;4.92;52.34;64244.47;5077063;28;20112;-79
2023/03/22 04:53:26;;;;;;;18.27;6.93;;;;;;;4.86;52.50;64238.31;5077243;28;20043;-81
2023/03/22 04:55:56;;;;;;;16.90;6.43;;;;;;;4.85;53.02;64236.63;5077356;28;20044;-78
2023/03/22 04:58:25;;;;;;;22.67;6.80;;;;;;;5.00;52.89;64253.44;5068369;28;20032;-80
2023/03/22 05:00:54;;;;;;;12.50;6.40;;;;;;;5.08;52.52;64261.81;5070865;28;20113;-77
2023/03/22 05:03:21;;;;;;;11.07;6.43;;;;;;;5.23;52.45;64278.06;5091872;28;20044;-80
2023/03/22 05:05:49;;;;;;;19.75;6.05;;;;;;;5.36;52.52;64293.16;5056835;28;20044;-78
2023/03/22 05:08:16;;;;;;;10.10;5.80;;;;;;;5.60;52.46;64319.50;5056668;28;20140;-78
2023/03/22 05:10:45;;;;;;;22.23;6.40;;;;;;;5.88;52.14;64349.16;5066010;28;20054;-78
2023/03/22 05:13:11;;;;;;;15.63;6.70;;;;;;;6.20;51.63;64384.47;5093043;28;20206;-79
2023/03/22 05:15:41;;;;;;;12.95;5.95;;;;;;;6.26;51.00;64391.19;5095082;28;20098;-77
2023/03/22 05:18:07;;;;;;;18.63;6.32;;;;;;;6.53;50.86;64420.91;5076422;28;20184;-78
2023/03/22 05:20:35;;;;;;;17.65;6.13;;;;;;;6.52;50.87;64420.34;5093253;28;20040;-77
2023/03/22 05:23:09;;;;;;;13.43;6.60;;;;;;;6.55;50.93;64423.69;5086492;28;20135;-77
2023/03/22 05:25:37;;;;;;;25.35;6.85;;;;;;;6.71;50.99;64441.06;5072719;28;20111;-78
2023/03/22 05:28:03;;;;;;;13.75;6.30;;;;;;;6.90;50.28;64461.81;5072655;28;20052;-79
2023/03/22 05:30:45;;;;;;;18.73;6.65;;;;;;;7.02;50.15;64474.72;5058527;28;20450;-77
2023/03/22 05:33:22;;;;;;;17.02;6.75;;;;;;;7.13;50.28;64486.50;5055673;28;20037;-77
2023/03/22 05:35:51;;;;;;;;;;;;;;;7.26;50.00;64501.09;5056494;28;20045;-79
2023/03/22 05:38:17;;;;;;;11.85;5.10;;;;;;;7.11;50.09;64484.25;5074020;28;20280;-77
2023/03/22 05:40:48;;;;;;;12.13;5.30;;;;;;;7.11;50.40;64484.25;5070743;28;20048;-78
2023/03/22 05:43:14;;;;;;;17.90;5.88;;;;;;;7.19;50.35;64493.22;5107188;28;20048;-81
2023/03/22 05:45:45;;;;;;;10.30;5.43;;;;;;;7.22;50.21;64496.56;5092781;28;20052;-77
2023/03/22 05:48:35;;;;;;;10.45;5.43;;;;;;;7.20;50.59;64494.91;5087451;28;20044;-77
2023/03/22 05:51:04;;;;;;;12.88;4.45;;;;;;;7.35;50.28;64511.16;5089069;28;20052;-78
2023/03/22 05:53:32;;;;;;;10.40;5.20;;;;;;;7.33;50.15;64508.91;5059796;28;20048;-79
2023/03/22 05:56:08;;;;;;;9.90;4.75;;;;;;;7.24;50.04;64499.38;5059723;28;20044;-78
2023/03/22 05:58:35;;;;;;;6.20;4.55;;;;;;;7.16;50.35;64490.41;5061099;28;20040;-77
2023/03/22 06:01:12;;;;;;;9.20;3.97;;;;;;;7.24;50.07;64498.81;5082843;28;20055;-79
2023/03/22 06:03:47;;;;;;;11.88;4.00;;;;;;;7.40;50.04;64516.78;5079346;28;20071;-78
2023/03/22 06:06:28;;;;;;;18.02;4.90;;;;;;;7.63;49.81;64541.44;5068846;28;20043;-77
2023/03/22 06:09:03;;;;;;;13.32;4.95;;;;;;;7.76;49.41;64556.06;5092466;28;20109;-80
2023/03/22 06:11:32;;;;;;;8.77;5.18;;;;;;;7.66;48.97;64544.81;5091975;28;20044;-79
2023/03/22 06:13:59;;;;;;;12.20;4.50;;;;;;;7.61;49.36;64539.22;5075292;28;20083;-77
2023/03/22 06:16:30;;;;;;;10.65;4.45;;;;;;;7.84;49.00;64565.03;5056570;28;20036;-81
2023/03/22 06:18:56;;;;;;;12.52;5.55;;;;;;;7.87;48.94;64567.84;5055294;28;20063;-77
2023/03/22 06:21:22;;;;;;;9.70;5.25;;;;;;;7.98;49.03;64580.75;5088747;28;20044;-75
2023/03/22 06:23:48;;;;;;;10.98;4.60;;;;;;;8.07;48.37;64589.72;5055286;28;20505;-78
2023/03/22 06:26:13;;;;;;;17.30;4.85;;;;;;;7.96;48.35;64577.94;5071521;28;20041;-75
2023/03/22 06:28:41;;;;;;;17.58;4.45;;;;;;;8.15;48.50;64599.25;5068465;28;20150;-76
2023/03/22 06:31:08;;;;;;;10.60;4.38;;;;;;;8.25;47.63;64609.94;5092235;28;20051;-77
2023/03/22 06:33:54;;;;;;;11.65;4.65;;;;;;;8.39;47.76;64625.69;5071750;28;20047;-75
2023/03/22 06:36:33;;;;;;;11.02;4.13;;;;;;;8.65;47.00;64653.75;5071913;28;20442;-76
2023/03/22 06:39:07;;;;;;;9.98;3.95;;;;;;;8.81;46.85;64671.72;5072844;28;20059;-78
2023/03/22 06:41:33;;;;;;;10.70;4.22;;;;;;;8.93;46.78;64685.22;5055042;28;20044;-77
2023/03/22 06:44:00;;;;;;;13.73;4.40;;;;;;;9.07;46.71;64699.81;5070922;28;20478;-77
2023/03/22 06:46:38;;;;;;;14.77;9.30;;;;;;;9.19;46.54;64713.31;5071546;28;20052;-80
2023/03/22 06:49:11;;;;;;;7.57;3.40;;;;;;;8.96;46.28;64688.03;5088112;28;20051;-76
2023/03/22 06:51:37;;;;;;;11.55;4.22;;;;;;;9.32;46.30;64727.91;5073258;28;20052;-78
2023/03/22 06:54:03;;;;;;;6.00;3.30;;;;;;;9.24;45.57;64718.91;5055418;28;20514;-79
2023/03/22 06:56:29;;;;;;;10.90;4.47;;;;;;;9.03;45.95;64695.88;5038425;28;20044;-77
2023/03/22 06:58:56;;;;;;;11.43;4.03;;;;;;;9.11;46.04;64704.88;5071645;28;20048;-77
2023/03/22 07:01:23;;;;;;;15.23;4.05;;;;;;;8.90;45.84;64681.28;5071523;28;20052;-77
2023/03/22 07:03:50;;;;;;;16.83;4.15;;;;;;;8.89;50.13;64680.72;5054503;28;20036;-82
2023/03/22 07:06:19;;;;;;;5.40;3.50;;;;;;;9.04;48.60;64697.00;5071658;28;20068;-84
2023/03/22 07:08:48;;;;;;;19.42;4.05;;;;;;;9.31;47.21;64726.78;5071899;28;20079;-79
2023/03/22 07:11:18;;;;;;;5.97;3.65;;;;;;;9.48;48.59;64745.91;5071637;28;20070;-83
2023/03/22 07:13:49;;;;;;;21.67;11.13;;;;;;;9.74;45.17;64774.00;5088408;28;20071;-76
2023/03/22 07:16:19;;;;;;;5.60;3.72;;;;;;;9.83;44.85;64784.13;5039042;28;20043;-78
2023/03/22 07:18:54;;;;;;;5.75;4.20;;;;;;;9.73;45.25;64772.88;5071965;28;20045;-80
2023/03/22 07:21:21;;;;;;;8.85;3.53;;;;;;;9.42;45.81;64739.16;5071380;28;20048;-78
2023/03/22 07:23:51;;;;;;;5.63;3.50;;;;;;;9.31;45.84;64726.78;5071557;28;20577;-78
2023/03/22 07:26:20;;;;;;;6.43;4.40;;;;;;;9.42;46.07;64738.59;5071348;28;20055;-76
2023/03/22 07:28:48;;;;;;;16.70;4.00;;;;;;;9.38;45.76;64734.09;5055211;28;20085;-81
2023/03/22 07:31:14;;;;;;;9.98;3.50;;;;;;;9.28;46.00;64723.41;5054762;28;20043;-79
2023/03/22 07:34:04;;;;;;;13.27;4.05;;;;;;;9.46;45.77;64743.66;5071839;28;20044;-78
2023/03/22 07:36:37;;;;;;;4.45;3.33;;;;;;;9.41;46.71;64737.47;5055542;28;20049;-78
2023/03/22 07:39:05;;;;;;;19.35;3.97;;;;;;;9.40;45.92;64736.91;5054320;28;20044;-77
2023/03/22 07:41:34;;;;;;;7.18;3.45;;;;;;;9.66;45.33;64765.00;5071427;28;20094;-76
2023/03/22 07:44:32;;;;;;;10.95;3.78;;;;;;;9.79;45.03;64779.63;5042252;28;20040;-78
2023/03/22 07:47:18;;;;;;;7.55;3.50;;;;;;;9.65;45.28;64763.88;5063426;28;20051;-79
2023/03/22 07:50:13;;;;;;;5.88;3.92;;;;;;;9.60;45.73;64758.84;5062968;28;20392;-78
2023/03/22 07:52:41;;;;;;;9.73;4.03;;;;;;;9.37;45.79;64733.53;5071294;28;20049;-76
2023/03/22 07:55:09;;;;;;;10.80;4.20;;;;;;;9.51;45.50;64748.13;5073429;28;20040;-74
2023/03/22 07:57:36;;;;;;;8.48;4.40;;;;;;;9.18;46.26;64712.19;5089773;28;20036;-74
2023/03/22 08:00:04;;;;;;;6.95;3.80;;;;;;;9.24;46.38;64718.91;5058419;28;20048;-75
2023/03/22 08:02:47;;;;;;;6.55;3.80;;;;;;;9.26;46.64;64720.63;5052015;28;20071;-75
2023/03/22 08:05:33;;;;;;;8.20;3.45;;;;;;;9.03;47.16;64695.31;5094962;28;20062;-76
2023/03/22 08:08:01;;;;;;;7.45;3.75;;;;;;;9.20;46.93;64714.44;5094546;28;20052;-77
2023/03/22 08:10:27;;;;;;;23.10;4.65;;;;;;;9.13;46.76;64706.56;5112129;28;20044;-77
2023/03/22 08:12:54;;;;;;;9.95;4.28;;;;;;;9.12;47.36;64705.44;5111474;28;20051;-77
2023/03/22 08:15:22;;;;;;;11.95;3.55;;;;;;;9.12;47.20;64705.44;5094390;28;20510;-78
2023/03/22 08:17:49;;;;;;;6.22;3.95;;;;;;;9.42;46.63;64738.59;5077669;28;20104;-77
2023/03/22 08:20:26;;;;;;;4.85;3.58;;;;;;;9.42;46.47;64738.59;5078755;28;20392;-78
2023/03/22 08:22:54;;;;;;;6.80;3.42;;;;;;;9.53;46.40;64750.41;5078055;28;20494;-78
2023/03/22 08:25:20;;;;;;;7.57;3.53;;;;;;;9.54;46.36;64751.53;5094591;28;20044;-78
2023/03/22 08:27:46;;;;;;;10.02;3.83;;;;;;;9.72;46.05;64771.75;5094530;28;20084;-76
2023/03/22 08:30:14;;;;;;;7.75;4.03;;;;;;;9.81;45.48;64781.88;5060503;28;20043;-75
2023/03/22 08:32:41;;;;;;;12.88;3.25;;;;;;;9.88;45.61;64789.19;5069501;28;20132;-75
2023/03/22 08:35:08;;;;;;;7.30;4.18;;;;;;;9.92;45.90;64794.25;5040621;28;20040;-80
2023/03/22 08:37:34;;;;;;;5.57;3.60;;;;;;;10.02;45.71;64804.38;5040483;28;20139;-75
2023/03/22 08:40:06;;;;;;;4.05;3.17;;;;;;;10.22;45.15;64827.41;5073657;28;20045;-75
2023/03/22 08:42:45;;;;;;;5.40;3.20;;;;;;;10.13;45.96;64817.31;5042509;28;20052;-76
2023/03/22 08:45:11;;;;;;;5.57;3.38;;;;;;;10.13;45.48;64816.75;5057908;28;20186;-76
2023/03/22 08:47:46;;;;;;;5.05;3.45;;;;;;;10.41;45.40;64848.25;5078608;28;20040;-76
2023/03/22 08:50:12;;;;;;;8.75;3.90;;;;;;;10.38;46.00;64844.91;5064288;28;20052;-83
2023/03/22 08:52:59;;;;;;;7.53;3.35;;;;;;;10.25;46.30;64830.25;5093523;28;20067;-76
2023/03/22 08:55:36;;;;;;;7.40;3.60;;;;;;;10.21;46.16;64825.75;5077238;28;20498;-77
2023/03/22 08:58:10;;;;;;;5.95;3.42;;;;;;;10.40;46.81;64847.13;5094931;28;20499;-77
2023/03/22 09:00:56;;;;;;;7.60;3.67;;;;;;;10.67;44.92;64876.41;5076966;28;20040;-79
2023/03/22 09:03:39;;;;;;;8.80;3.42;;;;;;;10.77;45.20;64887.66;5076724;28;20044;-78
2023/03/22 09:06:05;;;;;;;4.70;3.50;;;;;;;10.85;46.03;64896.66;5093068;28;20044;-78
2023/03/22 09:08:37;;;;;;;4.15;3.17;;;;;;;11.06;44.96;64919.19;5093051;28;20040;-78
2023/03/22 09:11:08;;;;;;;4.35;2.92;;;;;;;10.87;43.93;64898.91;5093836;28;20036;-78
2023/03/22 09:13:34;;;;;;;5.13;3.38;;;;;;;10.64;46.89;64873.00;5093441;28;20055;-78
2023/03/22 09:16:03;;;;;;;6.97;3.45;;;;;;;10.68;46.24;64877.50;5060643;28;20050;-78
2023/03/22 09:18:31;;;;;;;4.22;3.05;;;;;;;10.83;45.51;64894.41;5093417;28;20410;-79
2023/03/22 09:21:01;;;;;;;11.15;3.00;;;;;;;10.66;45.35;64875.28;5059998;28;20495;-78
2023/03/22 09:23:36;;;;;;;9.80;3.05;;;;;;;10.90;44.78;64901.72;5060807;28;20044;-79
2023/03/22 09:26:05;;;;;;;6.65;2.72;;;;;;;10.52;45.29;64859.50;5093268;28;20126;-78
2023/03/22 09:28:32;;;;;;;7.63;2.83;;;;;;;10.50;46.93;64857.28;5059433;28;20052;-80
2023/03/22 09:31:05;;;;;;;11.25;3.20;;;;;;;10.51;45.23;64858.41;5076256;28;20093;-79
2023/03/22 09:33:33;;;;;;;5.93;3.28;;;;;;;10.50;45.39;64857.84;5093416;28;20052;-77
2023/03/22 09:35:59;;;;;;;6.82;3.58;;;;;;;10.80;45.13;64891.03;5059893;28;20417;-77
2023/03/22 09:38:26;;;;;;;11.25;3.35;;;;;;;10.92;43.82;64904.53;5076244;28;20079;-80
2023/03/22 09:40:59;;;;;;;5.93;3.05;;;;;;;10.83;44.10;64894.41;5059557;28;20169;-78
2023/03/22 09:43:34;;;;;;;6.70;3.38;;;;;;;10.41;44.61;64848.25;5059890;28;20147;-81
2023/03/22 09:46:02;;;;;;;4.95;2.78;;;;;;;10.43;44.75;64850.50;5092876;28;20039;-80
2023/03/22 09:48:32;;;;;;;8.57;3.40;;;;;;;10.47;44.44;64853.91;5093562;28;20048;-80
2023/03/22 09:51:01;;;;;;;4.25;3.00;;;;;;;10.29;45.00;64834.75;5075369;28;20044;-79
2023/03/22 09:53:28;;;;;;;12.33;2.87;;;;;;;10.26;44.96;64830.81;5058650;28;20043;-79
2023/03/22 09:56:13;;;;;;;8.70;3.17;;;;;;;9.93;45.75;64794.81;5092530;28;20059;-78
2023/03/22 09:58:46;;;;;;;9.18;3.30;;;;;;;10.17;45.12;64821.81;5092142;28;20479;-79
2023/03/22 10:01:21;;;;;;;4.32;3.22;;;;;;;10.52;44.78;64859.50;5037089;28;20084;-80
2023/03/22 10:04:25;;;;;;;8.07;3.80;;;;;;;10.53;44.50;64860.63;5021577;28;20407;-80
2023/03/22 10:07:05;;;;;;;7.57;3.15;;;;;;;11.03;44.37;64915.81;5051289;28;20056;-80
2023/03/22 10:10:07;;;;;;;45.80;4.32;;;;;;;11.42;43.49;64959.72;5037273;28;20045;-80
2023/03/22 10:12:40;;;;;;;3.35;2.80;;;;;;;11.69;42.57;64989.00;5021023;28;20045;-79
2023/03/22 10:15:19;;;;;;;4.80;2.60;;;;;;;11.60;41.95;64979.41;5021245;28;20143;-80
2023/03/22 10:17:51;;;;;;;9.13;3.05;;;;;;;11.45;42.45;64962.53;5070421;28;20549;-82
2023/03/22 10:20:38;;;;;;;4.35;3.08;;;;;;;11.50;42.50;64967.59;5021191;28;20048;-80
2023/03/22 10:23:11;;;;;;;3.63;2.70;;;;;;;11.51;42.10;64969.28;5021280;28;20044;-79
2023/03/22 10:25:40;;;;;;;5.75;2.92;;;;;;;11.43;42.44;64960.84;5053632;28;20507;-82
2023/03/22 10:28:20;;;;;;;7.55;3.00;;;;;;;11.44;42.75;64961.41;5036971;28;20063;-81
2023/03/22 10:30:53;;;;;;;14.48;2.92;;;;;;;11.49;41.99;64966.47;5053278;28;20098;-81
2023/03/22 10:33:48;;;;;;;9.02;3.00;;;;;;;11.23;42.60;64938.31;5054075;28;20518;-80
2023/03/22 10:36:17;;;;;;;6.07;3.10;;;;;;;11.12;42.51;64925.94;5053894;28;20070;-80
2023/03/22 10:38:48;;;;;;;9.35;3.47;;;;;;;10.64;43.55;64873.00;5082343;28;20059;-80
2023/03/22 10:41:19;;;;;;;8.10;3.40;;;;;;;10.34;44.23;64840.41;5058047;28;20040;-81
2023/03/22 10:43:50;;;;;;;9.48;3.47;;;;;;;10.49;44.33;64856.69;5074532;28;20085;-79
2023/03/22 10:46:27;;;;;;;4.38;2.90;;;;;;;10.82;43.67;64892.72;5090851;28;20036;-79
2023/03/22 10:48:58;;;;;;;7.00;3.50;;;;;;;10.68;43.77;64877.50;5057774;28;20491;-79
2023/03/22 10:51:39;;;;;;;5.97;3.20;;;;;;;10.81;43.97;64891.59;5074112;28;20044;-79
2023/03/22 10:54:14;;;;;;;6.63;2.90;;;;;;;10.45;44.05;64852.78;5092326;28;20047;-81
2023/03/22 10:56:40;;;;;;;9.40;3.28;;;;;;;10.35;44.47;64841.53;5057827;28;20040;-78
2023/03/22 10:59:06;;;;;;;11.57;2.83;;;;;;;10.21;44.57;64825.75;5092188;28;20070;-82
2023/03/22 11:01:38;;;;;;;5.40;2.88;;;;;;;9.95;45.05;64797.63;5090976;28;20047;-79
2023/03/22 11:04:14;;;;;;;6.93;3.25;;;;;;;9.77;45.72;64777.38;5091493;28;20047;-79
2023/03/22 11:06:51;;;;;;;7.00;3.30;;;;;;;9.80;45.57;64780.75;5075011;28;20078;-78
2023/03/22 11:09:19;;;;;;;8.00;3.30;;;;;;;9.49;46.37;64746.47;5092345;28;20127;-78
2023/03/22 11:11:55;;;;;;;16.25;3.65;;;;;;;9.39;46.35;64735.78;5091124;28;20044;-79
2023/03/22 11:14:50;;;;;;;7.00;2.92;;;;;;;9.24;47.16;64718.91;5091362;28;20040;-78
2023/03/22 11:17:24;;;;;;;10.30;3.10;;;;;;;8.93;47.74;64685.22;5086798;28;20052;-78
2023/03/22 11:20:08;;;;;;;5.20;3.15;;;;;;;8.94;47.87;64685.78;5092082;28;20044;-80
2023/03/22 11:22:41;;;;;;;5.57;3.63;;;;;;;8.85;48.22;64675.66;5074300;28;20050;-78
2023/03/22 11:25:21;;;;;;;4.68;3.22;;;;;;;8.78;48.33;64668.34;5090845;28;20499;-80
2023/03/22 11:28:16;;;;;;;4.32;3.20;;;;;;;8.81;48.44;64671.72;5057537;28;20048;-80
2023/03/22 11:31:13;;;;;;;7.43;3.15;;;;;;;8.62;48.93;64650.94;5068760;28;20291;-79
2023/03/22 11:33:56;;;;;;;7.38;3.40;;;;;;;8.65;48.60;64653.75;5095091;28;20125;-77
2023/03/22 11:36:23;;;;;;;22.60;4.80;;;;;;;8.69;49.05;64658.81;5078071;28;20453;-78
2023/03/22 11:38:57;;;;;;;5.97;3.17;;;;;;;8.95;48.38;64686.88;5061552;28;20040;-79
2023/03/22 11:41:26;;;;;;;5.20;3.50;;;;;;;9.12;48.16;64706.00;5077626;28;20040;-78
2023/03/22 11:44:06;;;;;;;5.05;3.20;;;;;;;9.44;47.44;64740.84;5061487;28;20044;-78
2023/03/22 11:46:34;;;;;;;6.05;4.10;;;;;;;9.11;47.75;64704.31;5095491;28;20181;-78
2023/03/22 11:49:07;;;;;;;6.25;3.63;;;;;;;9.02;48.09;64694.19;5094541;28;20387;-79
2023/03/22 11:51:37;;;;;;;7.03;4.18;;;;;;;8.70;48.77;64659.38;5078335;28;20051;-78
2023/03/22 11:54:22;;;;;;;9.43;3.40;;;;;;;8.49;48.82;64636.34;5094743;28;20139;-79
2023/03/22 11:56:49;;;;;;;12.05;3.63;;;;;;;8.39;49.42;64625.13;5077824;28;20055;-78
2023/03/22 11:59:28;;;;;;;6.30;4.00;;;;;;;8.10;50.55;64593.66;5077212;28;20036;-78